CEB212 RPLL-RPVE
Flight info
| Callsign | CEB212 |
|---|---|
| Flight time | 0h 41m |
| Altitude | 25000 |
| Route | VERDE2V VERDE W24 TAPER TAPER7B |
| Aircraft | A20N/M-SDE2E3FGHIRWXY/LB1 |
Departure
| Time | 2026-04-25 12:49 |
|---|---|
| Airport | Ninoy Aquino International Airport (RPLL) |
Arrival
| Time | 2026-04-25 13:31 |
|---|---|
| Airport | Godofredo P. Ramos Airport (RPVE) |
| Time | Latitude | Longitude | Altitude | Speed | Heading |
|---|---|---|---|---|---|
| 2026-04-25 11:33 | 14.52153 | 121.01048 | 64 ft | 0 kts | 45° |
| 2026-04-25 12:35 | 14.52142 | 121.01038 | 59 ft | 2 kts | 45° |
| 2026-04-25 12:35 | 14.52131 | 121.01026 | 61 ft | 2 kts | 45° |
| 2026-04-25 12:36 | 14.52120 | 121.01015 | 59 ft | 2 kts | 45° |
| 2026-04-25 12:36 | 14.52108 | 121.01003 | 59 ft | 2 kts | 45° |
| 2026-04-25 12:36 | 14.52097 | 121.00992 | 59 ft | 2 kts | 45° |
| 2026-04-25 12:36 | 14.52085 | 121.00980 | 59 ft | 2 kts | 53° |
| 2026-04-25 12:37 | 14.52078 | 121.00965 | 62 ft | 2 kts | 82° |
| 2026-04-25 12:37 | 14.52080 | 121.00949 | 60 ft | 2 kts | 116° |
| 2026-04-25 12:37 | 14.52086 | 121.00939 | 65 ft | 0 kts | 135° |
| 2026-04-25 12:39 | 14.52076 | 121.00950 | 65 ft | 4 kts | 134° |
| 2026-04-25 12:39 | 14.52048 | 121.00979 | 66 ft | 7 kts | 134° |
| 2026-04-25 12:39 | 14.52008 | 121.01020 | 64 ft | 0 kts | 134° |
| 2026-04-25 12:39 | 14.51999 | 121.01029 | 68 ft | 4 kts | 134° |
| 2026-04-25 12:40 | 14.51971 | 121.01057 | 68 ft | 7 kts | 140° |
| 2026-04-25 12:40 | 14.51923 | 121.01054 | 69 ft | 8 kts | 210° |
| 2026-04-25 12:40 | 14.51872 | 121.01060 | 65 ft | 8 kts | 129° |
| 2026-04-25 12:40 | 14.51827 | 121.01104 | 66 ft | 10 kts | 134° |
| 2026-04-25 12:41 | 14.51773 | 121.01159 | 69 ft | 12 kts | 137° |
| 2026-04-25 12:41 | 14.51708 | 121.01226 | 67 ft | 15 kts | 135° |
| 2026-04-25 12:41 | 14.51629 | 121.01307 | 63 ft | 17 kts | 135° |
| 2026-04-25 12:41 | 14.51541 | 121.01396 | 59 ft | 19 kts | 134° |
| 2026-04-25 12:42 | 14.51468 | 121.01472 | 63 ft | 15 kts | 135° |
| 2026-04-25 12:42 | 14.51418 | 121.01523 | 66 ft | 13 kts | 133° |
| 2026-04-25 12:42 | 14.51357 | 121.01588 | 62 ft | 11 kts | 135° |
| 2026-04-25 12:42 | 14.51294 | 121.01651 | 65 ft | 14 kts | 135° |
| 2026-04-25 12:43 | 14.51219 | 121.01729 | 62 ft | 16 kts | 132° |
| 2026-04-25 12:43 | 14.51140 | 121.01811 | 62 ft | 17 kts | 135° |
| 2026-04-25 12:43 | 14.50999 | 121.01903 | 64 ft | 11 kts | 205° |
| 2026-04-25 12:44 | 14.50959 | 121.01841 | 60 ft | 12 kts | 240° |
| 2026-04-25 12:44 | 14.50909 | 121.01752 | 68 ft | 16 kts | 241° |
| 2026-04-25 12:44 | 14.50794 | 121.01543 | 66 ft | 17 kts | 240° |
| 2026-04-25 12:45 | 14.50730 | 121.01428 | 66 ft | 19 kts | 240° |
| 2026-04-25 12:45 | 14.50670 | 121.01324 | 66 ft | 17 kts | 239° |
| 2026-04-25 12:45 | 14.50530 | 121.01071 | 64 ft | 23 kts | 240° |
| 2026-04-25 12:46 | 14.50444 | 121.00918 | 66 ft | 26 kts | 240° |
| 2026-04-25 12:46 | 14.50351 | 121.00749 | 64 ft | 28 kts | 238° |
| 2026-04-25 12:46 | 14.50251 | 121.00571 | 62 ft | 23 kts | 240° |
| 2026-04-25 12:46 | 14.50169 | 121.00422 | 59 ft | 22 kts | 244° |
| 2026-04-25 12:47 | 14.50095 | 121.00290 | 59 ft | 21 kts | 238° |
| 2026-04-25 12:47 | 14.50022 | 121.00155 | 65 ft | 13 kts | 238° |
| 2026-04-25 12:47 | 14.49980 | 121.00083 | 67 ft | 13 kts | 241° |
| 2026-04-25 12:47 | 14.49929 | 120.99989 | 63 ft | 16 kts | 238° |
| 2026-04-25 12:48 | 14.49849 | 120.99981 | 63 ft | 13 kts | 145° |
| 2026-04-25 12:48 | 14.49801 | 121.00026 | 69 ft | 0 kts | 103° |
| 2026-04-25 12:48 | 14.49804 | 121.00040 | 65 ft | 6 kts | 73° |
| 2026-04-25 12:48 | 14.49833 | 121.00093 | 60 ft | 11 kts | 59° |
| 2026-04-25 12:49 | 14.49904 | 121.00216 | 66 ft | 47 kts | 60° |
| 2026-04-25 12:49 | 14.50180 | 121.00726 | 63 ft | 114 kts | 59° |
| 2026-04-25 12:49 | 14.50657 | 121.01598 | 188 ft | 152 kts | 62° |
| 2026-04-25 12:49 | 14.51194 | 121.02505 | 887 ft | 146 kts | 60° |
| 2026-04-25 12:50 | 14.51736 | 121.03380 | 1601 ft | 143 kts | 60° |
| 2026-04-25 12:50 | 14.52258 | 121.04251 | 2117 ft | 150 kts | 60° |
| 2026-04-25 12:50 | 14.52833 | 121.05233 | 2553 ft | 168 kts | 60° |
| 2026-04-25 12:50 | 14.53465 | 121.06334 | 3005 ft | 190 kts | 60° |
| 2026-04-25 12:51 | 14.54185 | 121.07574 | 3509 ft | 212 kts | 60° |
| 2026-04-25 12:51 | 14.54964 | 121.08964 | 3993 ft | 234 kts | 66° |
| 2026-04-25 12:51 | 14.55256 | 121.10658 | 4482 ft | 257 kts | 95° |
| 2026-04-25 12:51 | 14.54647 | 121.12460 | 5129 ft | 274 kts | 125° |
| 2026-04-25 12:52 | 14.53241 | 121.13776 | 6127 ft | 278 kts | 152° |
| 2026-04-25 12:52 | 14.51380 | 121.14315 | 7045 ft | 283 kts | 179° |
| 2026-04-25 12:52 | 14.49450 | 121.13960 | 7932 ft | 289 kts | 201° |
| 2026-04-25 12:52 | 14.47568 | 121.13140 | 8822 ft | 294 kts | 202° |
| 2026-04-25 12:53 | 14.45639 | 121.12429 | 9776 ft | 298 kts | 197° |
| 2026-04-25 12:53 | 14.43585 | 121.11914 | 9994 ft | 302 kts | 191° |
| 2026-04-25 12:53 | 14.41472 | 121.11592 | 10110 ft | 320 kts | 187° |
| 2026-04-25 12:53 | 14.39146 | 121.11346 | 10215 ft | 346 kts | 186° |
| 2026-04-25 12:54 | 14.36752 | 121.11133 | 10327 ft | 350 kts | 185° |
| 2026-04-25 12:54 | 14.34313 | 121.10923 | 10436 ft | 351 kts | 185° |
| 2026-04-25 12:54 | 14.31902 | 121.10711 | 10531 ft | 350 kts | 186° |
| 2026-04-25 12:54 | 14.29470 | 121.10491 | 10640 ft | 349 kts | 185° |
| 2026-04-25 12:55 | 14.27027 | 121.10267 | 10740 ft | 350 kts | 186° |
| 2026-04-25 12:55 | 14.26228 | 121.10194 | 10779 ft | 351 kts | 186° |
| 2026-04-25 12:55 | 14.22178 | 121.09820 | 10959 ft | 352 kts | 186° |
| 2026-04-25 12:55 | 14.19735 | 121.09593 | 11015 ft | 352 kts | 186° |
| 2026-04-25 12:56 | 14.17292 | 121.09366 | 11023 ft | 352 kts | 186° |
| 2026-04-25 12:56 | 14.14836 | 121.09139 | 11023 ft | 353 kts | 186° |
| 2026-04-25 12:56 | 14.12420 | 121.08915 | 11026 ft | 350 kts | 186° |
| 2026-04-25 12:56 | 14.09972 | 121.08688 | 11032 ft | 352 kts | 185° |
| 2026-04-25 12:57 | 14.07506 | 121.08459 | 11325 ft | 356 kts | 185° |
| 2026-04-25 12:57 | 14.05069 | 121.08234 | 12260 ft | 354 kts | 185° |
| 2026-04-25 12:57 | 14.02596 | 121.08005 | 13133 ft | 358 kts | 185° |
| 2026-04-25 12:57 | 14.00956 | 121.07853 | 13670 ft | 360 kts | 185° |
| 2026-04-25 12:58 | 13.98440 | 121.07620 | 14381 ft | 364 kts | 185° |
| 2026-04-25 12:58 | 13.95888 | 121.07384 | 15071 ft | 368 kts | 186° |
| 2026-04-25 12:58 | 13.93340 | 121.07150 | 15811 ft | 370 kts | 186° |
| 2026-04-25 12:58 | 13.89903 | 121.06834 | 16659 ft | 377 kts | 186° |
| 2026-04-25 12:59 | 13.88146 | 121.06672 | 17073 ft | 380 kts | 186° |
| 2026-04-25 12:59 | 13.85492 | 121.06427 | 17761 ft | 383 kts | 186° |
| 2026-04-25 12:59 | 13.82848 | 121.06183 | 18403 ft | 385 kts | 186° |
| 2026-04-25 12:59 | 13.80157 | 121.05933 | 18966 ft | 388 kts | 186° |
| 2026-04-25 13:00 | 13.77441 | 121.05680 | 19405 ft | 393 kts | 186° |
| 2026-04-25 13:00 | 13.75625 | 121.05512 | 19477 ft | 391 kts | 186° |
| 2026-04-25 13:00 | 13.71987 | 121.05176 | 19628 ft | 397 kts | 186° |
| 2026-04-25 13:00 | 13.69326 | 121.04930 | 20268 ft | 396 kts | 186° |
| 2026-04-25 13:01 | 13.66543 | 121.04673 | 20869 ft | 398 kts | 186° |
| 2026-04-25 13:01 | 13.63802 | 121.04420 | 21433 ft | 401 kts | 186° |
| 2026-04-25 13:01 | 13.60996 | 121.04161 | 21995 ft | 404 kts | 186° |
| 2026-04-25 13:01 | 13.58171 | 121.03900 | 22548 ft | 407 kts | 186° |
| 2026-04-25 13:02 | 13.55378 | 121.03642 | 23097 ft | 409 kts | 186° |
| 2026-04-25 13:02 | 13.52500 | 121.03574 | 23597 ft | 414 kts | 176° |
| 2026-04-25 13:02 | 13.49655 | 121.04194 | 24023 ft | 420 kts | 162° |
| 2026-04-25 13:02 | 13.47031 | 121.05498 | 24454 ft | 426 kts | 148° |
| 2026-04-25 13:03 | 13.44570 | 121.07225 | 24686 ft | 430 kts | 147° |
| 2026-04-25 13:03 | 13.42129 | 121.08955 | 24776 ft | 430 kts | 147° |
| 2026-04-25 13:03 | 13.39646 | 121.10710 | 24863 ft | 430 kts | 147° |
| 2026-04-25 13:03 | 13.37191 | 121.12442 | 24952 ft | 431 kts | 147° |
| 2026-04-25 13:04 | 13.34707 | 121.14189 | 24978 ft | 431 kts | 147° |
| 2026-04-25 13:04 | 13.32219 | 121.15936 | 24980 ft | 431 kts | 147° |
| 2026-04-25 13:04 | 13.29762 | 121.17660 | 24980 ft | 431 kts | 147° |
| 2026-04-25 13:04 | 13.27277 | 121.19404 | 24980 ft | 431 kts | 147° |
| 2026-04-25 13:05 | 13.24786 | 121.21150 | 24981 ft | 431 kts | 147° |
| 2026-04-25 13:05 | 13.22329 | 121.22874 | 24870 ft | 428 kts | 147° |
| 2026-04-25 13:05 | 13.19894 | 121.24582 | 24501 ft | 426 kts | 147° |
| 2026-04-25 13:05 | 13.17450 | 121.26295 | 24039 ft | 422 kts | 147° |
| 2026-04-25 13:06 | 13.15049 | 121.27977 | 23515 ft | 418 kts | 147° |
| 2026-04-25 13:06 | 13.12649 | 121.29659 | 22878 ft | 414 kts | 147° |
| 2026-04-25 13:06 | 13.10274 | 121.31321 | 22247 ft | 411 kts | 147° |
| 2026-04-25 13:06 | 13.07946 | 121.32951 | 21653 ft | 407 kts | 147° |
| 2026-04-25 13:07 | 13.05602 | 121.34590 | 21044 ft | 404 kts | 147° |
| 2026-04-25 13:07 | 13.03275 | 121.36216 | 20454 ft | 400 kts | 146° |
| 2026-04-25 13:07 | 13.01004 | 121.37804 | 19884 ft | 397 kts | 146° |
| 2026-04-25 13:07 | 12.98727 | 121.39396 | 19321 ft | 394 kts | 146° |
| 2026-04-25 13:08 | 12.96461 | 121.40981 | 18766 ft | 391 kts | 146° |
| 2026-04-25 13:08 | 12.94234 | 121.42538 | 18235 ft | 387 kts | 146° |
| 2026-04-25 13:08 | 12.92000 | 121.44101 | 17611 ft | 385 kts | 146° |
| 2026-04-25 13:08 | 12.89815 | 121.45628 | 17018 ft | 382 kts | 146° |
| 2026-04-25 13:09 | 12.87639 | 121.47150 | 16441 ft | 379 kts | 146° |
| 2026-04-25 13:09 | 12.85457 | 121.48675 | 15874 ft | 376 kts | 146° |
| 2026-04-25 13:09 | 12.83294 | 121.50186 | 15327 ft | 373 kts | 146° |
| 2026-04-25 13:09 | 12.81176 | 121.51666 | 14785 ft | 371 kts | 146° |
| 2026-04-25 13:10 | 12.79039 | 121.53158 | 14229 ft | 369 kts | 146° |
| 2026-04-25 13:10 | 12.76926 | 121.54633 | 13729 ft | 366 kts | 146° |
| 2026-04-25 13:10 | 12.74841 | 121.56088 | 13141 ft | 363 kts | 146° |
| 2026-04-25 13:10 | 12.72744 | 121.57551 | 12591 ft | 360 kts | 146° |
| 2026-04-25 13:11 | 12.70692 | 121.58981 | 12083 ft | 356 kts | 146° |
| 2026-04-25 13:11 | 12.68635 | 121.60415 | 11528 ft | 354 kts | 146° |
| 2026-04-25 13:11 | 12.66630 | 121.61813 | 11055 ft | 350 kts | 146° |
| 2026-04-25 13:11 | 12.64614 | 121.63219 | 10528 ft | 348 kts | 145° |
| 2026-04-25 13:12 | 12.62655 | 121.64584 | 10275 ft | 337 kts | 145° |
| 2026-04-25 13:12 | 12.60749 | 121.65911 | 10147 ft | 322 kts | 145° |
| 2026-04-25 13:12 | 12.58946 | 121.67167 | 10038 ft | 309 kts | 145° |
| 2026-04-25 13:12 | 12.57782 | 121.67978 | 9947 ft | 301 kts | 145° |
| 2026-04-25 13:13 | 12.55486 | 121.69578 | 9494 ft | 295 kts | 145° |
| 2026-04-25 13:13 | 12.53849 | 121.70719 | 9350 ft | 280 kts | 144° |
| 2026-04-25 13:13 | 12.52259 | 121.71826 | 9176 ft | 270 kts | 144° |
| 2026-04-25 13:13 | 12.50731 | 121.72891 | 8849 ft | 267 kts | 144° |
| 2026-04-25 13:14 | 12.49187 | 121.73967 | 8516 ft | 265 kts | 144° |
| 2026-04-25 13:14 | 12.47681 | 121.75015 | 8184 ft | 264 kts | 144° |
| 2026-04-25 13:14 | 12.46164 | 121.76070 | 7880 ft | 261 kts | 143° |
| 2026-04-25 13:14 | 12.44663 | 121.77112 | 7562 ft | 259 kts | 143° |
| 2026-04-25 13:15 | 12.43167 | 121.78152 | 7244 ft | 257 kts | 143° |
| 2026-04-25 13:15 | 12.41705 | 121.79169 | 6954 ft | 255 kts | 143° |
| 2026-04-25 13:15 | 12.40242 | 121.80188 | 6655 ft | 253 kts | 143° |
| 2026-04-25 13:15 | 12.38796 | 121.81195 | 6354 ft | 252 kts | 143° |
| 2026-04-25 13:16 | 12.37347 | 121.82193 | 6034 ft | 251 kts | 146° |
| 2026-04-25 13:16 | 12.35785 | 121.82977 | 5697 ft | 253 kts | 157° |
| 2026-04-25 13:16 | 12.34081 | 121.83496 | 5346 ft | 254 kts | 161° |
| 2026-04-25 13:16 | 12.32394 | 121.83985 | 5156 ft | 248 kts | 160° |
| 2026-04-25 13:17 | 12.30715 | 121.84484 | 5071 ft | 255 kts | 160° |
| 2026-04-25 13:17 | 12.29026 | 121.84988 | 5009 ft | 252 kts | 160° |
| 2026-04-25 13:17 | 12.27336 | 121.85492 | 5004 ft | 254 kts | 160° |
| 2026-04-25 13:17 | 12.25640 | 121.85998 | 5003 ft | 253 kts | 160° |
| 2026-04-25 13:18 | 12.23946 | 121.86503 | 5003 ft | 252 kts | 160° |
| 2026-04-25 13:18 | 12.22280 | 121.86999 | 5003 ft | 252 kts | 160° |
| 2026-04-25 13:18 | 12.20582 | 121.87505 | 5004 ft | 252 kts | 160° |
| 2026-04-25 13:18 | 12.18909 | 121.88003 | 5003 ft | 252 kts | 160° |
| 2026-04-25 13:19 | 12.17221 | 121.88505 | 5003 ft | 252 kts | 160° |
| 2026-04-25 13:19 | 12.15545 | 121.89004 | 5003 ft | 252 kts | 160° |
| 2026-04-25 13:19 | 12.13854 | 121.89507 | 5004 ft | 252 kts | 160° |
| 2026-04-25 13:19 | 12.12738 | 121.89839 | 5004 ft | 252 kts | 160° |
| 2026-04-25 13:20 | 12.10488 | 121.90509 | 5003 ft | 253 kts | 160° |
| 2026-04-25 13:20 | 12.08809 | 121.91008 | 5003 ft | 252 kts | 160° |
| 2026-04-25 13:20 | 12.07116 | 121.91511 | 5003 ft | 252 kts | 160° |
| 2026-04-25 13:20 | 12.05374 | 121.91741 | 5003 ft | 258 kts | 184° |
| 2026-04-25 13:21 | 12.03690 | 121.91108 | 5008 ft | 266 kts | 213° |
| 2026-04-25 13:21 | 12.02395 | 121.89740 | 4992 ft | 268 kts | 232° |
| 2026-04-25 13:21 | 12.01353 | 121.88166 | 4734 ft | 269 kts | 236° |
| 2026-04-25 13:21 | 12.00340 | 121.86524 | 4258 ft | 276 kts | 236° |
| 2026-04-25 13:22 | 11.99296 | 121.84875 | 4097 ft | 285 kts | 235° |
| 2026-04-25 13:22 | 11.98179 | 121.83179 | 4003 ft | 290 kts | 234° |
| 2026-04-25 13:22 | 11.97034 | 121.81486 | 3905 ft | 288 kts | 234° |
| 2026-04-25 13:23 | 11.94734 | 121.78137 | 3798 ft | 289 kts | 233° |
| 2026-04-25 13:23 | 11.93563 | 121.76440 | 3798 ft | 291 kts | 233° |
| 2026-04-25 13:23 | 11.92299 | 121.74867 | 3798 ft | 288 kts | 217° |
| 2026-04-25 13:23 | 11.90582 | 121.73950 | 3796 ft | 268 kts | 189° |
| 2026-04-25 13:24 | 11.88835 | 121.73942 | 3792 ft | 242 kts | 159° |
| 2026-04-25 13:24 | 11.87396 | 121.74655 | 3795 ft | 221 kts | 144° |
| 2026-04-25 13:24 | 11.86105 | 121.75413 | 3793 ft | 206 kts | 145° |
| 2026-04-25 13:24 | 11.84913 | 121.76091 | 3818 ft | 187 kts | 141° |
| 2026-04-25 13:25 | 11.84139 | 121.77002 | 3748 ft | 158 kts | 109° |
| 2026-04-25 13:25 | 11.83957 | 121.78033 | 3663 ft | 140 kts | 85° |
| 2026-04-25 13:25 | 11.84180 | 121.78946 | 3553 ft | 129 kts | 66° |
| 2026-04-25 13:25 | 11.84610 | 121.79749 | 3327 ft | 134 kts | 63° |
| 2026-04-25 13:26 | 11.85043 | 121.80589 | 3161 ft | 126 kts | 64° |
| 2026-04-25 13:26 | 11.85427 | 121.81360 | 2952 ft | 121 kts | 65° |
| 2026-04-25 13:26 | 11.85805 | 121.82128 | 2684 ft | 121 kts | 64° |
| 2026-04-25 13:26 | 11.86188 | 121.82899 | 2417 ft | 121 kts | 65° |
| 2026-04-25 13:27 | 11.86564 | 121.83653 | 2324 ft | 122 kts | 64° |
| 2026-04-25 13:27 | 11.86947 | 121.84421 | 2265 ft | 121 kts | 64° |
| 2026-04-25 13:27 | 11.87331 | 121.85189 | 2257 ft | 121 kts | 64° |
| 2026-04-25 13:27 | 11.87714 | 121.85951 | 2247 ft | 122 kts | 63° |
| 2026-04-25 13:28 | 11.88127 | 121.86718 | 2150 ft | 121 kts | 62° |
| 2026-04-25 13:28 | 11.88262 | 121.86962 | 2116 ft | 121 kts | 61° |
| 2026-04-25 13:28 | 11.88948 | 121.88227 | 1749 ft | 122 kts | 64° |
| 2026-04-25 13:28 | 11.89304 | 121.89010 | 1365 ft | 124 kts | 64° |
| 2026-04-25 13:29 | 11.89662 | 121.89804 | 1132 ft | 125 kts | 63° |
| 2026-04-25 13:29 | 11.90047 | 121.90585 | 994 ft | 121 kts | 63° |
| 2026-04-25 13:29 | 11.90428 | 121.91358 | 809 ft | 124 kts | 63° |
| 2026-04-25 13:30 | 11.91245 | 121.92937 | 518 ft | 129 kts | 63° |
| 2026-04-25 13:30 | 11.91635 | 121.93739 | 365 ft | 123 kts | 63° |
| 2026-04-25 13:30 | 11.92035 | 121.94531 | 208 ft | 126 kts | 63° |
| 2026-04-25 13:31 | 11.92693 | 121.95859 | 30 ft | 60 kts | 63° |
| 2026-04-25 13:31 | 11.92840 | 121.96152 | 27 ft | 34 kts | 63° |
| 2026-04-25 13:31 | 11.92928 | 121.96330 | 27 ft | 6 kts | 63° |
| 2026-04-25 13:31 | 11.92958 | 121.96396 | 27 ft | 13 kts | 66° |
| 2026-04-25 13:32 | 11.92972 | 121.96435 | 25 ft | 5 kts | 83° |
| 2026-04-25 13:32 | 11.92937 | 121.96471 | 25 ft | 9 kts | 154° |
| 2026-04-25 13:32 | 11.92876 | 121.96500 | 26 ft | 11 kts | 153° |
| 2026-04-25 13:32 | 11.92810 | 121.96527 | 29 ft | 10 kts | 187° |
| 2026-04-25 13:33 | 11.92782 | 121.96491 | 29 ft | 8 kts | 239° |
| 2026-04-25 13:33 | 11.92749 | 121.96423 | 31 ft | 13 kts | 244° |
| 2026-04-25 13:33 | 11.92708 | 121.96341 | 29 ft | 11 kts | 244° |
| 2026-04-25 13:33 | 11.92703 | 121.96330 | 31 ft | 2 kts | 244° |
| 2026-04-25 13:34 | 11.92688 | 121.96320 | 27 ft | 1 kts | 183° |
| 2026-04-25 13:34 | 11.92676 | 121.96327 | 28 ft | 4 kts | 155° |
| 2026-04-25 13:34 | 11.92658 | 121.96336 | 28 ft | 2 kts | 152° |